createdAt,value
2018-04-27T00:02:26.925Z,2.77
2018-04-27T00:04:55.191Z,2.80
2018-04-27T00:07:23.471Z,3.20
2018-04-27T00:09:51.739Z,2.97
2018-04-27T00:12:19.267Z,2.93
2018-04-27T00:14:46.784Z,3.63
2018-04-27T00:17:15.080Z,2.90
2018-04-27T00:19:42.573Z,2.73
2018-04-27T00:22:10.076Z,3.13
2018-04-27T00:24:37.604Z,2.90
2018-04-27T00:27:05.109Z,2.70
2018-04-27T00:29:32.619Z,3.60
2018-04-27T00:32:00.123Z,3.47
2018-04-27T00:34:27.687Z,2.73
2018-04-27T00:36:55.145Z,2.87
2018-04-27T00:39:22.682Z,2.93
2018-04-27T00:41:50.199Z,2.57
2018-04-27T00:44:18.479Z,2.83
2018-04-27T00:46:46.834Z,2.80
2018-04-27T00:49:14.301Z,3.17
2018-04-27T00:51:41.812Z,4.30
2018-04-27T00:54:09.329Z,3.50
2018-04-27T00:56:36.838Z,4.13
2018-04-27T00:59:04.335Z,3.53
2018-04-27T01:01:31.869Z,3.13
2018-04-27T01:03:59.381Z,3.27
2018-04-27T01:06:27.656Z,3.03
2018-04-27T01:08:55.177Z,3.40
2018-04-27T01:11:22.680Z,3.60
2018-04-27T01:13:50.202Z,3.60
2018-04-27T01:16:17.715Z,2.83
2018-04-27T01:18:45.421Z,3.13
2018-04-27T01:21:13.701Z,3.27
2018-04-27T01:23:41.982Z,2.73
2018-04-27T01:26:10.267Z,3.40
2018-04-27T01:28:37.785Z,3.70
2018-04-27T01:31:05.304Z,4.10
2018-04-27T01:33:32.798Z,3.07
2018-04-27T01:36:00.293Z,3.33
2018-04-27T01:38:27.823Z,2.77
2018-04-27T01:40:55.332Z,3.20
2018-04-27T01:43:23.627Z,3.50
2018-04-27T01:45:51.130Z,3.73
2018-04-27T01:48:18.642Z,3.70
2018-04-27T01:50:46.927Z,3.80
2018-04-27T01:53:15.217Z,4.40
2018-04-27T01:55:42.749Z,3.87
2018-04-27T01:58:10.275Z,3.93
2018-04-27T02:00:37.824Z,3.83
2018-04-27T02:03:05.346Z,4.00
2018-04-27T02:05:33.612Z,3.53
2018-04-27T02:08:01.896Z,3.77
2018-04-27T02:10:29.411Z,3.90
2018-04-27T02:12:56.944Z,4.33
2018-04-27T02:15:25.210Z,3.90
2018-04-27T02:17:52.714Z,3.10
2018-04-27T02:20:20.220Z,3.10
2018-04-27T02:22:47.726Z,3.90
2018-04-27T02:25:16.007Z,3.87
2018-04-27T02:27:44.282Z,4.27
2018-04-27T02:30:12.586Z,3.70
2018-04-27T02:32:40.086Z,3.60
2018-04-27T02:35:07.611Z,3.20
2018-04-27T02:37:35.112Z,3.37
2018-04-27T02:40:02.621Z,2.97
2018-04-27T02:42:30.914Z,4.27
2018-04-27T02:44:58.416Z,3.13
2018-04-27T02:47:25.947Z,3.33
2018-04-27T02:49:53.461Z,3.77
2018-04-27T02:52:21.010Z,3.60
2018-04-27T02:54:48.518Z,2.97
2018-04-27T02:57:16.779Z,3.93
2018-04-27T02:59:44.306Z,3.07
2018-04-27T03:02:11.816Z,3.60
2018-04-27T03:04:40.128Z,2.83
2018-04-27T03:07:07.642Z,3.57
2018-04-27T03:09:35.924Z,4.00
2018-04-27T03:12:03.436Z,3.30
2018-04-27T03:14:30.966Z,3.43
2018-04-27T03:16:59.229Z,3.43
2018-04-27T03:19:27.502Z,4.00
2018-04-27T03:21:56.537Z,3.67
2018-04-27T03:24:24.812Z,2.87
2018-04-27T03:26:53.090Z,3.70
2018-04-27T03:29:21.363Z,3.87
2018-04-27T03:31:48.876Z,4.27
2018-04-27T03:34:16.433Z,3.70
2018-04-27T03:36:44.714Z,3.50
2018-04-27T03:39:12.223Z,3.80
2018-04-27T03:41:41.256Z,3.33
2018-04-27T03:44:09.567Z,4.50
2018-04-27T03:46:37.066Z,3.93
2018-04-27T03:49:04.595Z,4.03
2018-04-27T03:51:32.095Z,4.00
2018-04-27T03:53:59.620Z,3.53
2018-04-27T03:56:27.128Z,3.40
2018-04-27T03:58:54.650Z,3.57
2018-04-27T04:01:33.972Z,3.80
2018-04-27T04:04:13.358Z,3.80
2018-04-27T04:06:40.906Z,4.30
2018-04-27T04:09:08.444Z,3.53
2018-04-27T04:11:35.955Z,4.20
2018-04-27T04:14:03.458Z,3.80
2018-04-27T04:16:31.744Z,4.50
2018-04-27T04:18:59.255Z,4.03
2018-04-27T04:21:26.774Z,4.40
2018-04-27T04:23:54.273Z,3.90
2018-04-27T04:26:21.813Z,4.50
2018-04-27T04:28:49.315Z,4.63
2018-04-27T04:31:16.813Z,4.20
2018-04-27T04:33:44.333Z,4.30
2018-04-27T04:36:11.854Z,5.60
2018-04-27T04:38:39.368Z,5.20
2018-04-27T04:41:06.874Z,4.07
2018-04-27T04:43:34.395Z,3.93
2018-04-27T04:46:01.893Z,4.43
2018-04-27T04:48:29.401Z,3.97
2018-04-27T04:50:56.928Z,4.37
2018-04-27T04:53:24.425Z,4.63
2018-04-27T04:55:51.955Z,4.80
2018-04-27T04:58:19.462Z,5.00
2018-04-27T05:00:46.986Z,4.90
2018-04-27T05:03:14.491Z,4.40
2018-04-27T05:05:43.528Z,4.80
2018-04-27T05:08:11.248Z,4.90
2018-04-27T05:10:38.762Z,4.07
2018-04-27T05:13:06.290Z,4.30
2018-04-27T05:15:33.808Z,4.60
2018-04-27T05:18:07.374Z,4.60
2018-04-27T05:20:35.643Z,4.80
2018-04-27T05:23:03.955Z,5.20
2018-04-27T05:25:31.461Z,3.70
2018-04-27T05:27:58.972Z,4.83
2018-04-27T05:30:27.266Z,4.17
2018-04-27T05:33:04.845Z,5.27
2018-04-27T05:35:33.140Z,3.90
2018-04-27T05:38:01.419Z,9.07
2018-04-27T05:40:28.925Z,4.90
2018-04-27T05:42:56.441Z,4.63
2018-04-27T05:45:23.962Z,6.73
2018-04-27T05:47:51.474Z,6.33
2018-04-27T05:50:18.953Z,4.93
2018-04-27T05:52:46.469Z,6.07
2018-04-27T05:55:14.741Z,5.17
2018-04-27T05:57:42.268Z,5.80
2018-04-27T06:00:09.763Z,5.10
2018-04-27T06:02:37.269Z,6.77
2018-04-27T06:05:04.805Z,5.40
2018-04-27T06:07:33.088Z,4.70
2018-04-27T06:10:01.469Z,6.73
2018-04-27T06:12:28.910Z,4.90
2018-04-27T06:14:56.450Z,4.20
2018-04-27T06:17:23.940Z,3.57
2018-04-27T06:19:52.203Z,5.17
2018-04-27T06:22:19.732Z,4.43
2018-04-27T06:24:47.234Z,4.30
2018-04-27T06:27:14.765Z,3.97
2018-04-27T06:29:42.274Z,4.17
2018-04-27T06:32:09.807Z,4.33
2018-04-27T06:34:37.312Z,3.73
2018-04-27T06:37:04.820Z,4.60
2018-04-27T06:39:32.338Z,3.50
2018-04-27T06:41:59.841Z,3.70
2018-04-27T06:44:27.360Z,3.27
2018-04-27T06:46:54.884Z,4.87
2018-04-27T06:49:22.407Z,3.27
2018-04-27T06:51:50.678Z,3.73
2018-04-27T06:54:18.205Z,3.77
2018-04-27T06:56:45.743Z,3.80
2018-04-27T06:59:13.369Z,2.90
2018-04-27T07:01:41.552Z,2.80
2018-04-27T07:04:09.835Z,3.10
2018-04-27T07:06:38.139Z,3.20
2018-04-27T07:09:05.643Z,4.30
2018-04-27T07:11:33.154Z,2.90
2018-04-27T07:14:01.449Z,3.03
2018-04-27T07:16:28.985Z,2.90
2018-04-27T07:18:56.519Z,3.07
2018-04-27T07:21:24.051Z,2.97
2018-04-27T07:23:51.577Z,3.10
2018-04-27T07:26:19.183Z,3.03
2018-04-27T07:28:46.733Z,2.63
2018-04-27T07:31:14.241Z,3.10
2018-04-27T07:33:41.762Z,3.37
2018-04-27T07:36:09.276Z,2.87
2018-04-27T07:38:36.811Z,3.03
2018-04-27T07:41:05.079Z,2.90
2018-04-27T07:43:32.584Z,3.17
2018-04-27T07:46:00.130Z,2.97
2018-04-27T07:48:27.652Z,2.40
2018-04-27T07:50:55.940Z,2.57
2018-04-27T07:53:23.469Z,2.77
2018-04-27T07:55:51.000Z,2.47
2018-04-27T07:58:18.508Z,3.00
2018-04-27T08:00:46.820Z,2.40
2018-04-27T08:03:14.335Z,2.40
2018-04-27T08:05:41.848Z,2.40
2018-04-27T08:08:09.377Z,2.43
2018-04-27T08:10:37.644Z,3.00
2018-04-27T08:13:05.181Z,2.40
2018-04-27T08:15:32.691Z,3.10
2018-04-27T08:18:00.995Z,2.47
2018-04-27T08:20:28.507Z,2.97
2018-04-27T08:22:56.043Z,2.63
2018-04-27T08:25:23.547Z,2.43
2018-04-27T08:27:55.484Z,2.50
2018-04-27T08:30:22.993Z,2.07
2018-04-27T08:32:51.264Z,2.20
2018-04-27T08:35:18.783Z,2.03
2018-04-27T08:37:46.293Z,2.43
2018-04-27T08:40:14.568Z,1.70
2018-04-27T08:42:42.080Z,2.87
2018-04-27T08:45:09.623Z,2.73
2018-04-27T08:47:37.147Z,2.70
2018-04-27T08:50:04.649Z,2.83
2018-04-27T08:52:32.199Z,2.40
2018-04-27T08:55:00.475Z,2.60
2018-04-27T08:57:28.754Z,3.00
2018-04-27T08:59:57.050Z,2.43
2018-04-27T09:02:25.340Z,2.20
2018-04-27T09:04:52.865Z,2.73
2018-04-27T09:07:20.408Z,2.63
2018-04-27T09:09:47.917Z,2.60
2018-04-27T09:12:16.213Z,2.80
2018-04-27T09:14:43.726Z,2.20
2018-04-27T09:17:11.238Z,2.97
2018-04-27T09:19:38.762Z,2.73
2018-04-27T09:22:06.286Z,2.93
2018-04-27T09:24:33.811Z,3.10
2018-04-27T09:27:02.172Z,2.60
2018-04-27T09:29:29.644Z,3.00
2018-04-27T09:31:57.164Z,3.00
2018-04-27T09:34:24.692Z,2.80
2018-04-27T09:36:52.230Z,3.27
2018-04-27T09:39:19.749Z,3.30
2018-04-27T09:41:47.282Z,2.77
2018-04-27T09:44:15.553Z,3.53
2018-04-27T09:46:43.852Z,4.20
2018-04-27T09:49:12.113Z,3.00
2018-04-27T09:51:39.638Z,3.77
2018-04-27T09:54:07.141Z,3.20
2018-04-27T09:56:35.424Z,3.83
2018-04-27T09:59:03.717Z,3.30
2018-04-27T10:01:32.003Z,3.60
2018-04-27T10:03:59.541Z,3.43
2018-04-27T10:06:27.806Z,4.00
2018-04-27T10:08:55.338Z,3.43
2018-04-27T10:11:22.841Z,3.60
2018-04-27T10:13:51.866Z,3.20
2018-04-27T10:16:19.414Z,2.90
2018-04-27T10:18:46.928Z,2.80
2018-04-27T10:21:14.635Z,2.57
2018-04-27T10:23:42.159Z,3.30
2018-04-27T10:26:09.724Z,2.83
2018-04-27T10:28:37.235Z,2.90
2018-04-27T10:31:05.545Z,3.70
2018-04-27T10:33:33.037Z,2.60
2018-04-27T10:36:00.552Z,2.70
2018-04-27T10:38:28.840Z,2.60
2018-04-27T10:40:57.113Z,3.20
2018-04-27T10:43:25.419Z,2.20
2018-04-27T10:45:52.927Z,2.63
2018-04-27T10:48:20.430Z,2.60
2018-04-27T10:50:48.724Z,2.77
2018-04-27T10:53:16.239Z,2.53
2018-04-27T10:55:43.784Z,2.50
2018-04-27T10:58:11.313Z,2.30
2018-04-27T11:00:38.845Z,2.13
2018-04-27T11:03:07.110Z,2.27
2018-04-27T11:05:34.630Z,2.13
2018-04-27T11:08:02.164Z,2.37
2018-04-27T11:10:30.435Z,2.80
2018-04-27T11:12:57.980Z,2.70
2018-04-27T11:15:25.506Z,2.30
2018-04-27T11:17:53.010Z,3.10
2018-04-27T11:20:20.548Z,3.47
2018-04-27T11:22:48.044Z,2.97
2018-04-27T11:25:15.591Z,2.90
2018-04-27T11:27:44.636Z,2.80
2018-04-27T11:30:12.922Z,3.50
2018-04-27T11:32:41.227Z,3.30
2018-04-27T11:35:08.790Z,3.10
2018-04-27T11:37:37.056Z,2.90
2018-04-27T11:40:04.596Z,2.53
2018-04-27T11:42:32.127Z,2.20
2018-04-27T11:44:59.631Z,2.40
2018-04-27T11:47:27.909Z,3.20
2018-04-27T11:49:56.201Z,2.40
2018-04-27T11:52:24.473Z,2.87
2018-04-27T11:54:52.769Z,3.40
2018-04-27T11:57:20.312Z,3.17
2018-04-27T11:59:48.629Z,2.37
2018-04-27T12:02:16.136Z,2.80
2018-04-27T12:04:43.639Z,3.13
2018-04-27T12:07:11.170Z,2.97
2018-04-27T12:09:39.444Z,2.97
2018-04-27T12:12:06.980Z,2.67
2018-04-27T12:14:34.476Z,3.17
2018-04-27T12:17:02.034Z,2.40
2018-04-27T12:19:29.545Z,2.90
2018-04-27T12:21:57.063Z,2.50
2018-04-27T12:24:26.238Z,3.30
2018-04-27T12:26:53.698Z,3.10
2018-04-27T12:29:21.225Z,2.33
2018-04-27T12:31:49.548Z,2.60
2018-04-27T12:34:17.098Z,3.07
2018-04-27T12:36:44.611Z,2.47
2018-04-27T12:39:12.139Z,2.30
2018-04-27T12:41:39.661Z,3.03
2018-04-27T12:44:07.929Z,2.40
2018-04-27T12:46:36.216Z,2.50
2018-04-27T12:49:04.517Z,2.63
2018-04-27T12:51:32.055Z,2.20
2018-04-27T12:54:00.319Z,3.47
2018-04-27T12:56:27.857Z,2.53
2018-04-27T12:58:55.373Z,2.40
2018-04-27T13:01:23.657Z,2.40
2018-04-27T13:03:51.943Z,2.57
2018-04-27T13:06:20.226Z,3.27
2018-04-27T13:08:47.788Z,2.40
2018-04-27T13:11:16.051Z,3.37
2018-04-27T13:13:44.368Z,3.20
2018-04-27T13:16:11.883Z,2.80
2018-04-27T13:18:39.406Z,2.63
2018-04-27T13:21:06.938Z,3.17
2018-04-27T13:23:35.210Z,2.77
2018-04-27T13:26:03.506Z,3.00
2018-04-27T13:28:31.015Z,2.87
2018-04-27T13:30:58.548Z,3.00
2018-04-27T13:33:26.074Z,2.20
2018-04-27T13:35:53.598Z,3.40
2018-04-27T13:38:21.119Z,2.57
2018-04-27T13:40:49.415Z,3.40
2018-04-27T13:43:16.975Z,2.80
2018-04-27T13:45:44.491Z,2.60
2018-04-27T13:48:12.005Z,2.90
2018-04-27T13:50:39.548Z,2.80
2018-04-27T13:53:07.839Z,2.83
2018-04-27T13:55:36.146Z,2.83
2018-04-27T13:58:03.696Z,3.10
2018-04-27T14:00:31.213Z,2.90
2018-04-27T14:02:58.753Z,3.27
2018-04-27T14:05:26.277Z,3.27
2018-04-27T14:07:54.577Z,3.17
2018-04-27T14:10:22.105Z,3.10
2018-04-27T14:12:50.407Z,2.50
2018-04-27T14:15:17.931Z,3.33
2018-04-27T14:17:45.461Z,2.80
2018-04-27T14:20:12.997Z,2.33
2018-04-27T14:22:40.519Z,2.47
2018-04-27T14:25:08.038Z,2.93
2018-04-27T14:27:35.563Z,2.60
2018-04-27T14:30:03.078Z,2.90
2018-04-27T14:32:30.613Z,3.00
2018-04-27T14:34:58.892Z,3.20
2018-04-27T14:37:27.169Z,2.77
2018-04-27T14:39:55.474Z,2.33
2018-04-27T14:42:23.002Z,3.17
2018-04-27T14:44:50.519Z,3.17
2018-04-27T14:47:18.068Z,2.80
2018-04-27T14:49:45.585Z,2.10
2018-04-27T14:52:13.112Z,2.10
2018-04-27T14:54:40.613Z,2.50
2018-04-27T14:57:08.169Z,2.37
2018-04-27T14:59:35.740Z,2.70
2018-04-27T15:02:03.266Z,2.43
2018-04-27T15:04:30.809Z,2.97
2018-04-27T15:06:58.320Z,2.67
2018-04-27T15:09:26.090Z,2.80
2018-04-27T15:11:55.113Z,2.37
2018-04-27T15:14:23.412Z,2.40
2018-04-27T15:16:50.922Z,2.63
2018-04-27T15:19:18.464Z,3.20
2018-04-27T15:21:45.999Z,2.60
2018-04-27T15:24:13.556Z,2.83
2018-04-27T15:26:41.069Z,2.93
2018-04-27T15:29:08.646Z,3.00
2018-04-27T15:31:36.210Z,2.90
2018-04-27T15:34:03.730Z,2.87
2018-04-27T15:36:31.281Z,2.67
2018-04-27T15:38:59.566Z,2.83
2018-04-27T15:41:27.093Z,2.97
2018-04-27T15:43:54.611Z,3.23
2018-04-27T15:46:22.139Z,2.27
2018-04-27T15:48:50.419Z,2.67
2018-04-27T15:51:18.704Z,2.67
2018-04-27T15:53:46.969Z,2.70
2018-04-27T15:56:16.023Z,2.27
2018-04-27T15:58:43.539Z,2.83
2018-04-27T16:01:11.858Z,3.03
2018-04-27T16:03:39.399Z,3.60
2018-04-27T16:06:07.682Z,2.80
2018-04-27T16:08:36.088Z,2.40
2018-04-27T16:11:04.570Z,2.83
2018-04-27T16:16:38.448Z,2.67
2018-04-27T16:19:06.871Z,2.83
2018-04-27T16:21:34.375Z,2.70
2018-04-27T16:24:01.893Z,3.70
2018-04-27T16:26:31.456Z,3.87
2018-04-27T16:28:58.976Z,3.30
2018-04-27T16:31:27.232Z,5.60
2018-04-27T16:33:55.521Z,3.87
2018-04-27T16:36:23.080Z,3.80
2018-04-27T16:38:51.372Z,3.77
2018-04-27T16:41:18.901Z,3.10
2018-04-27T16:43:46.435Z,2.43
2018-04-27T16:46:13.947Z,2.60
2018-04-27T16:48:42.252Z,2.87
2018-04-27T16:51:09.762Z,2.77
2018-04-27T16:53:37.292Z,2.47
2018-04-27T16:56:04.831Z,2.67
2018-04-27T16:58:32.326Z,2.60
2018-04-27T17:00:59.913Z,2.50
2018-04-27T17:03:27.456Z,2.70
2018-04-27T17:05:54.993Z,3.07
2018-04-27T17:08:22.507Z,2.27
2018-04-27T17:10:50.060Z,4.00
2018-04-27T17:13:17.601Z,2.80
2018-04-27T17:15:45.144Z,2.30
2018-04-27T17:18:12.687Z,3.33
2018-04-27T17:20:41.013Z,2.63
2018-04-27T17:23:08.566Z,3.10
2018-04-27T17:25:36.099Z,3.00
2018-04-27T17:28:04.426Z,2.33
2018-04-27T17:30:31.949Z,2.43
2018-04-27T17:33:00.243Z,2.43
2018-04-27T17:35:27.849Z,2.40
2018-04-27T17:37:56.052Z,2.50
2018-04-27T17:40:23.692Z,2.43
2018-04-27T17:42:51.752Z,2.83
2018-04-27T17:45:19.289Z,2.80
2018-04-27T17:47:47.621Z,2.03
2018-04-27T17:50:15.169Z,2.90
2018-04-27T17:52:42.703Z,3.60
2018-04-27T17:55:10.237Z,2.77
2018-04-27T17:57:37.789Z,2.77
2018-04-27T18:00:05.323Z,3.30
2018-04-27T18:02:32.908Z,3.13
2018-04-27T18:05:00.469Z,3.30
2018-04-27T18:07:28.798Z,2.80
2018-04-27T18:09:56.385Z,3.30
2018-04-27T18:12:23.930Z,3.00
2018-04-27T18:14:51.460Z,3.53
2018-04-27T18:17:19.012Z,3.17
2018-04-27T18:19:46.544Z,2.70
2018-04-27T18:22:14.088Z,3.07
2018-04-27T18:24:41.622Z,3.73
2018-04-27T18:27:09.207Z,3.40
2018-04-27T18:29:37.538Z,3.53
2018-04-27T18:32:05.140Z,3.30
2018-04-27T18:34:32.767Z,3.53
2018-04-27T18:37:00.362Z,3.80
2018-04-27T18:39:28.027Z,3.57
2018-04-27T18:41:56.399Z,3.50
2018-04-27T18:44:23.946Z,3.20
2018-04-27T18:46:51.528Z,2.27
2018-04-27T18:49:19.594Z,3.07
2018-04-27T18:51:47.539Z,3.77
2018-04-27T18:54:15.141Z,3.07
2018-04-27T18:56:42.793Z,2.97
2018-04-27T18:59:10.440Z,3.53
2018-04-27T19:01:38.037Z,3.00
2018-04-27T19:04:05.677Z,2.77
2018-04-27T19:06:33.231Z,2.90
2018-04-27T19:09:00.974Z,3.40
2018-04-27T19:11:28.488Z,4.10
2018-04-27T19:13:57.085Z,4.30
2018-04-27T19:16:24.716Z,2.87
2018-04-27T19:18:56.833Z,4.37
2018-04-27T19:21:24.563Z,3.17
2018-04-27T19:23:53.125Z,3.30
2018-04-27T19:26:21.391Z,2.73
2018-04-27T19:28:49.744Z,3.20
2018-04-27T19:31:18.163Z,3.27
2018-04-27T19:33:46.551Z,2.77
2018-04-27T19:36:14.183Z,2.67
2018-04-27T19:38:41.780Z,3.20
2018-04-27T19:41:10.120Z,5.27
2018-04-27T19:43:38.170Z,4.10
2018-04-27T19:46:05.776Z,3.70
2018-04-27T19:48:34.165Z,4.10
2018-04-27T19:51:01.712Z,4.70
2018-04-27T19:53:29.353Z,5.27
2018-04-27T19:55:56.937Z,4.93
2018-04-27T19:58:24.490Z,4.00
2018-04-27T20:00:52.124Z,3.67
2018-04-27T20:03:19.721Z,4.37
2018-04-27T20:05:48.097Z,5.17
2018-04-27T20:08:15.721Z,6.00
2018-04-27T20:10:44.146Z,5.37
2018-04-27T20:13:12.677Z,7.10
2018-04-27T20:15:43.008Z,29.20
2018-04-27T20:18:27.424Z,55.97
2018-04-27T20:20:59.138Z,18.77
2018-04-27T20:23:29.318Z,6.17
2018-04-27T20:25:57.725Z,4.67
2018-04-27T20:28:25.261Z,4.47
2018-04-27T20:30:52.828Z,4.70
2018-04-27T20:33:21.315Z,5.17
2018-04-27T20:35:48.846Z,4.33
2018-04-27T20:38:17.095Z,4.60
2018-04-27T20:40:45.410Z,4.90
2018-04-27T20:43:22.654Z,3.70
2018-04-27T20:45:50.173Z,5.37
2018-04-27T20:48:19.741Z,4.90
2018-04-27T20:50:51.012Z,4.53
2018-04-27T20:53:18.521Z,4.50
2018-04-27T20:55:48.869Z,3.77
2018-04-27T20:58:17.191Z,4.80
2018-04-27T21:00:44.756Z,5.13
2018-04-27T21:03:12.328Z,5.23
2018-04-27T21:05:39.860Z,5.77
2018-04-27T21:08:08.181Z,5.00
2018-04-27T21:10:36.385Z,5.40
2018-04-27T21:13:04.677Z,5.10
2018-04-27T21:15:32.208Z,4.87
2018-04-27T21:17:59.736Z,5.20
2018-04-27T21:20:28.060Z,5.03
2018-04-27T21:22:57.164Z,5.47
2018-04-27T21:25:44.105Z,5.17
2018-04-27T21:28:14.452Z,5.53
2018-04-27T21:30:44.616Z,4.90
2018-04-27T21:33:12.128Z,4.50
2018-04-27T21:35:52.515Z,5.30
2018-04-27T21:38:39.370Z,5.13
2018-04-27T21:41:27.782Z,4.83
2018-04-27T21:44:10.208Z,4.50
2018-04-27T21:46:37.736Z,4.63
2018-04-27T21:49:12.843Z,4.77
2018-04-27T21:51:51.427Z,5.07
2018-04-27T21:54:19.743Z,5.10
2018-04-27T21:57:01.091Z,5.47
2018-04-27T22:02:50.919Z,4.30
2018-04-27T22:05:48.983Z,4.97
2018-04-27T22:08:34.273Z,4.80
2018-04-27T22:11:02.663Z,5.47
2018-04-27T22:13:30.151Z,4.07
2018-04-27T22:15:58.432Z,5.00
2018-04-27T22:18:25.987Z,5.63
2018-04-27T22:20:55.089Z,4.60
2018-04-27T22:23:34.116Z,4.20
2018-04-27T22:26:05.576Z,3.60
2018-04-27T22:28:42.949Z,5.23
2018-04-27T22:31:10.466Z,5.30
2018-04-27T22:33:38.759Z,5.00
2018-04-27T22:36:15.316Z,6.73
2018-04-27T22:38:51.670Z,6.77
2018-04-27T22:41:19.196Z,5.90
2018-04-27T22:43:52.143Z,5.60
2018-04-27T22:46:20.460Z,5.20
2018-04-27T22:48:54.748Z,5.70
2018-04-27T22:51:23.143Z,5.30
2018-04-27T22:53:55.257Z,4.53
2018-04-27T22:56:54.064Z,5.70
2018-04-27T22:59:27.245Z,5.23
2018-04-27T23:02:21.505Z,5.80
2018-04-27T23:04:58.519Z,5.33
2018-04-27T23:07:26.028Z,6.43
2018-04-27T23:09:56.351Z,6.60
2018-04-27T23:12:24.819Z,5.30
2018-04-27T23:14:52.853Z,6.13
2018-04-27T23:17:20.365Z,6.13
2018-04-27T23:19:50.487Z,5.77
2018-04-27T23:22:29.895Z,5.77
2018-04-27T23:25:07.042Z,6.53
2018-04-27T23:27:36.027Z,7.37
2018-04-27T23:30:04.316Z,6.27
2018-04-27T23:32:32.609Z,5.83
2018-04-27T23:35:00.134Z,6.03
2018-04-27T23:37:27.646Z,6.83
2018-04-27T23:39:55.191Z,7.37
2018-04-27T23:42:24.252Z,7.33
2018-04-27T23:44:51.770Z,7.00
2018-04-27T23:47:19.297Z,7.30
2018-04-27T23:49:47.600Z,6.63
2018-04-27T23:52:15.910Z,6.10
2018-04-27T23:54:43.429Z,7.60
2018-04-27T23:57:10.971Z,7.70
2018-04-27T23:59:40.329Z,5.83
